• Join FlightAware (Why Join?)
  • Login
  • US Flag 
10:16AM EST


 

Airport Tracker/Info


-or-


 

Live Flight TrackerFlight Track Log ✈ EJA831 ✈ 30-Sep-2013 ✈ KLAS - KTPH

Flight Track Log - Related Links

Times and Time Zones

All times are in EDT time to prevent confusion due to time zone crossing. See the EJA831 flight status page for this flight to view local times or setup timezone preferences in your user account.

Time Position Orientation Groundspeed Altitude Reporting Facility
EDT Latitude Longitude Course Direction KTS MPH feet Rate Location/Type
08:05PM 36.0661 -115.1714 206° Southwest 194 223 3,100  Level Los Angeles Center
08:06PM 36.0258 -115.1953 206° Southwest 212 244 5,300 1,860 Climbing Los Angeles Center
08:07PM 35.9925 -115.2511 234° Southwest 281 323 6,400 1,620 Climbing Los Angeles Center
08:08PM 35.9392 -115.3406 234° Southwest 272 313 8,600 2,640 Climbing Los Angeles Center
08:09PM 35.8883 -115.4119 229° Southwest 278 320 11,900 2,760 Climbing Los Angeles Center
08:10PM 35.8869 -115.5086 269° West 279 321 14,400 1,980 Climbing Los Angeles Center
08:11PM 35.8889 -115.6175 271° West 302 348 16,000 720 Climbing Los Angeles Center
08:12PM 35.8908 -115.7381 271° West 331 381 16,000  Level Los Angeles Center
08:13PM 35.8931 -115.8578 271° West 349 402 16,000  Level Los Angeles Center
08:14PM 35.9072 -115.9817 278° West 340 391 16,000  Level Los Angeles Center
08:15PM 35.9781 -116.0650 316° Northwest 349 402 16,000  Level Los Angeles Center
08:16PM 36.0539 -116.1522 317° Northwest 348 400 16,000  Level Los Angeles Center
08:17PM 36.1206 -116.2275 318° Northwest 353 406 16,000  Level Los Angeles Center
08:18PM 36.1953 -116.3128 317° Northwest 348 400 16,000  Level Los Angeles Center
08:19PM 36.2608 -116.3903 316° Northwest 347 399 16,000  Level Los Angeles Center
08:20PM 36.3444 -116.4869 317° Northwest 346 398 16,000 -60 Level Los Angeles Center
08:21PM 36.4150 -116.5686 317° Northwest 346 398 15,900 -60 Descending Los Angeles Center
08:22PM 36.4858 -116.6531 316° Northwest 350 403 15,900  Level Los Angeles Center
08:23PM 36.5669 -116.7356 321° Northwest 356 410 15,900  Level Los Angeles Center
08:24PM 36.6514 -116.8008 328° Northwest 355 409 15,900  Level Los Angeles Center
08:26PM 36.7419 -116.8481 337° Northwest 359 413 15,900 60 Level Los Angeles Center
08:27PM 36.8389 -116.8794 345° North 359 413 16,100 60 Climbing Los Angeles Center
08:28PM 36.9353 -116.9119 345° North 358 412 16,100  Level Los Angeles Center
08:29PM 37.0328 -116.9428 346° North 360 414 16,100  Level Los Angeles Center
08:30PM 37.1475 -116.9756 347° North 354 407 16,100  Level Los Angeles Center
08:31PM 37.2431 -117.0058 346° North 352 405 16,100 -60 Level Los Angeles Center
08:32PM 37.3394 -117.0333 347° North 354 407 16,000 -600 Descending Los Angeles Center
08:33PM 37.4294 -117.0750 340° North 348 400 14,900 -1,320 Descending Los Angeles Center
08:34PM 37.5178 -117.1153 340° North 341 392 13,300 -1,440 Descending Los Angeles Center
08:35PM 37.6031 -117.1517 341° North 329 379 12,000 -660 Descending Los Angeles Center
08:36PM 37.6853 -117.1875 341° North 318 366 12,000 -480 Level Los Angeles Center
08:37PM 37.7894 -117.1869 360° North 314 361 11,100 -540 Descending Los Angeles Center
08:38PM 37.8667 -117.1597 16° North 311 358 11,000 -120 Descending Los Angeles Center
08:40PM 38.0060 -117.1072 11° North  Level Estimated
08:47PM 38.0500 -117.0833 North  Level FlightAware Approximate
08:48PM 38.0602 -117.0868 North  Level Estimated
08:49PM 38.0602 -117.0868 North  Level Estimated
08:50PM 38.0602 -117.0868 North  Level Estimated
08:51PM 38.0602 -117.0868 North  Level Estimated
08:52PM 38.0602 -117.0868 North  Level Estimated
08:53PM 38.0602 -117.0868 North  Level Estimated
08:54PM 38.0602 -117.0868 North  Level Estimated
08:55PM 38.0602 -117.0868 North  Level Estimated
08:56PM 38.0602 -117.0868 North  Level Estimated
08:57PM 38.0602 -117.0868 North  Level Estimated